Time;durP1;ratioP1;P1;durP2;ratioP2;P2;SDS_P1;SDS_P2;PMS_P1;PMS_P2;Temp;Humidity;BMP_temperature;BMP_pressure;BME280_temperature;BME280_humidity;BME280_pressure;Samples;Min_cycle;Max_cycle;Signal;HPM_P1;HPM_P2
2023/04/03 00:00:27;;;;;;;3.25;1.00;;;;;;;;;;5085237;28;20052;-73
2023/04/03 00:02:54;;;;;;;3.05;1.00;;;;;;;;;;5083793;28;20052;-74
2023/04/03 00:05:22;;;;;;;2.78;1.25;;;;;;;;;;5087754;28;20129;-74
2023/04/03 00:07:50;;;;;;;4.03;1.42;;;;;;;;;;5090083;28;20059;-74
2023/04/03 00:10:18;;;;;;;5.05;1.10;;;;;;;;;;5071616;28;20054;-74
2023/04/03 00:12:45;;;;;;;3.72;1.10;;;;;;;;;;5069845;28;20052;-74
2023/04/03 00:15:12;;;;;;;3.75;1.00;;;;;;;;;;5050263;28;20061;-73
2023/04/03 00:17:40;;;;;;;3.58;1.02;;;;;;;;;;5057401;28;20048;-73
2023/04/03 00:20:08;;;;;;;2.78;1.13;;;;;;;;;;5059411;28;20053;-74
2023/04/03 00:22:35;;;;;;;4.65;1.20;;;;;;;;;;5053094;28;20124;-74
2023/04/03 00:25:04;;;;;;;5.45;1.13;;;;;;;;;;5041920;28;20060;-73
2023/04/03 00:27:31;;;;;;;5.07;1.10;;;;;;;;;;5058961;28;20068;-74
2023/04/03 00:29:58;;;;;;;3.45;1.17;;;;;;;;;;5061884;28;20047;-74
2023/04/03 00:32:25;;;;;;;6.03;1.55;;;;;;;;;;5048417;28;20480;-74
2023/04/03 00:34:53;;;;;;;6.85;1.08;;;;;;;;;;5058159;28;20048;-74
2023/04/03 00:37:20;;;;;;;3.05;1.30;;;;;;;;;;5052855;28;20535;-74
2023/04/03 00:39:47;;;;;;;3.55;1.00;;;;;;;;;;5050538;28;20557;-74
2023/04/03 00:42:16;;;;;;;2.70;1.00;;;;;;;;;;5049096;28;20492;-74
2023/04/03 00:45:02;;;;;;;4.13;1.13;;;;;;;;;;5047265;28;20067;-74
2023/04/03 00:47:30;;;;;;;5.50;1.13;;;;;;;;;;5043146;28;20052;-74
2023/04/03 00:49:58;;;;;;;3.42;1.13;;;;;;;;;;5048600;28;20058;-74
2023/04/03 00:52:29;;;;;;;3.15;1.10;;;;;;;;;;5052364;28;20049;-74
2023/04/03 00:55:00;;;;;;;2.70;1.05;;;;;;;;;;5045142;28;20060;-74
2023/04/03 00:57:29;;;;;;;3.45;1.05;;;;;;;;;;5045863;28;20060;-74
2023/04/03 00:59:58;;;;;;;3.17;1.10;;;;;;;;;;5042636;28;20052;-74
2023/04/03 01:02:26;;;;;;;4.90;1.00;;;;;;;;;;5054021;28;20045;-74
2023/04/03 01:04:54;;;;;;;2.25;0.82;;;;;;;;;;5050572;28;20085;-74
2023/04/03 01:07:23;;;;;;;2.03;0.95;;;;;;;;;;5057366;28;20169;-73
2023/04/03 01:09:53;;;;;;;2.60;0.90;;;;;;;;;;5052187;28;20499;-74
2023/04/03 01:12:21;;;;;;;4.22;0.90;;;;;;;;;;5058997;28;20496;-74
2023/04/03 01:14:51;;;;;;;3.53;0.88;;;;;;;;;;5079128;28;20056;-74
2023/04/03 01:17:32;;;;;;;3.22;1.38;;;;;;;;;;5082449;28;20057;-74
2023/04/03 01:20:11;;;;;;;4.18;0.80;;;;;;;;;;5087580;28;20509;-74
2023/04/03 01:22:41;;;;;;;1.88;0.80;;;;;;;;;;5065246;28;20052;-74
2023/04/03 01:25:08;;;;;;;2.65;0.70;;;;;;;;;;5079677;28;20055;-74
2023/04/03 01:27:35;;;;;;;2.78;0.85;;;;;;;;;;5088139;28;20040;-73
2023/04/03 01:30:04;;;;;;;2.25;0.90;;;;;;;;;;5085345;28;20044;-74
2023/04/03 01:32:33;;;;;;;2.42;0.85;;;;;;;;;;5089050;28;20047;-74
2023/04/03 01:35:00;;;;;;;2.78;0.90;;;;;;;;;;5079290;28;20049;-74
2023/04/03 01:37:28;;;;;;;1.90;0.80;;;;;;;;;;5085057;28;20126;-74
2023/04/03 01:39:55;;;;;;;4.85;0.90;;;;;;;;;;5070241;28;20067;-74
2023/04/03 01:42:22;;;;;;;6.80;0.80;;;;;;;;;;5082248;28;20059;-74
2023/04/03 01:44:50;;;;;;;2.25;0.80;;;;;;;;;;5084607;28;20093;-74
2023/04/03 01:47:17;;;;;;;2.67;0.80;;;;;;;;;;5067608;28;20060;-74
2023/04/03 01:49:46;;;;;;;4.07;1.00;;;;;;;;;;5084923;28;20056;-74
2023/04/03 01:52:13;;;;;;;3.80;1.08;;;;;;;;;;5086894;28;20048;-74
2023/04/03 01:54:40;;;;;;;2.70;0.88;;;;;;;;;;5066266;28;20091;-74
2023/04/03 01:57:07;;;;;;;3.38;0.88;;;;;;;;;;5085714;28;20093;-74
2023/04/03 01:59:34;;;;;;;3.35;1.00;;;;;;;;;;5087955;28;20048;-74
2023/04/03 02:02:02;;;;;;;2.63;0.80;;;;;;;;;;5086845;28;20415;-74
2023/04/03 02:04:29;;;;;;;5.45;1.05;;;;;;;;;;5066974;28;20074;-74
2023/04/03 02:06:58;;;;;;;1.95;0.82;;;;;;;;;;5066088;28;20063;-74
2023/04/03 02:09:26;;;;;;;3.92;0.95;;;;;;;;;;5087583;28;20044;-74
2023/04/03 02:11:53;;;;;;;2.75;0.98;;;;;;;;;;5083362;28;20105;-74
2023/04/03 02:14:21;;;;;;;3.63;1.13;;;;;;;;;;5059504;28;20048;-74
2023/04/03 02:16:48;;;;;;;2.58;0.90;;;;;;;;;;5072604;28;20052;-74
2023/04/03 02:19:16;;;;;;;3.83;1.00;;;;;;;;;;5059729;28;20366;-74
2023/04/03 02:21:43;;;;;;;4.68;0.75;;;;;;;;;;5077425;28;20052;-74
2023/04/03 02:24:12;;;;;;;4.28;1.08;;;;;;;;;;5078343;28;20497;-74
2023/04/03 02:26:39;;;;;;;2.03;0.80;;;;;;;;;;5064442;28;20071;-74
2023/04/03 02:29:06;;;;;;;4.82;1.33;;;;;;;;;;5079180;28;20044;-74
2023/04/03 02:31:33;;;;;;;3.67;0.82;;;;;;;;;;5076527;28;20048;-74
2023/04/03 02:34:01;;;;;;;3.38;0.77;;;;;;;;;;5083078;28;20036;-74
2023/04/03 02:36:28;;;;;;;2.30;0.85;;;;;;;;;;5067686;28;20134;-74
2023/04/03 02:38:55;;;;;;;3.30;1.05;;;;;;;;;;5080502;28;20395;-74
2023/04/03 02:41:25;;;;;;;2.10;0.60;;;;;;;;;;5070230;28;20109;-74
2023/04/03 02:43:52;;;;;;;3.58;0.80;;;;;;;;;;5078242;28;20076;-74
2023/04/03 02:46:20;;;;;;;2.42;1.05;;;;;;;;;;5084464;28;20048;-74
2023/04/03 02:48:47;;;;;;;1.73;0.80;;;;;;;;;;5086586;28;20056;-74
2023/04/03 02:51:15;;;;;;;3.35;0.95;;;;;;;;;;5088247;28;20075;-74
2023/04/03 02:53:42;;;;;;;1.67;0.82;;;;;;;;;;5080106;28;20135;-74
2023/04/03 02:56:10;;;;;;;3.85;0.95;;;;;;;;;;5082542;28;20458;-74
2023/04/03 02:58:38;;;;;;;5.10;1.20;;;;;;;;;;5087665;28;20060;-74
2023/04/03 03:01:05;;;;;;;3.28;1.10;;;;;;;;;;5067879;28;20071;-74
2023/04/03 03:03:33;;;;;;;4.80;1.15;;;;;;;;;;5088240;28;20051;-73
2023/04/03 03:06:04;;;;;;;4.43;0.90;;;;;;;;;;5062576;28;20052;-74
2023/04/03 03:08:31;;;;;;;4.65;0.93;;;;;;;;;;5085465;28;20052;-74
2023/04/03 03:10:59;;;;;;;3.40;0.98;;;;;;;;;;5086230;28;20056;-74
2023/04/03 03:13:26;;;;;;;4.55;1.13;;;;;;;;;;5084068;28;20067;-74
2023/04/03 03:15:55;;;;;;;4.28;1.20;;;;;;;;;;5084369;28;20071;-74
2023/04/03 03:18:22;;;;;;;2.45;1.10;;;;;;;;;;5084252;28;20050;-74
2023/04/03 03:20:52;;;;;;;5.38;1.02;;;;;;;;;;5085793;28;20052;-74
2023/04/03 03:23:19;;;;;;;4.95;0.95;;;;;;;;;;5083371;28;20043;-74
2023/04/03 03:25:47;;;;;;;3.75;0.90;;;;;;;;;;5072830;28;20052;-74
2023/04/03 03:28:14;;;;;;;5.25;1.10;;;;;;;;;;5062855;28;20861;-74
2023/04/03 03:30:41;;;;;;;5.47;1.05;;;;;;;;;;5061765;28;20083;-74
2023/04/03 03:33:10;;;;;;;4.05;1.15;;;;;;;;;;5063306;28;20139;-74
2023/04/03 03:35:37;;;;;;;4.45;1.10;;;;;;;;;;5067027;28;20173;-74
2023/04/03 03:38:05;;;;;;;3.33;1.02;;;;;;;;;;5082880;28;20408;-74
2023/04/03 03:40:32;;;;;;;6.20;1.10;;;;;;;;;;5067383;28;20135;-74
2023/04/03 03:42:59;;;;;;;4.75;1.15;;;;;;;;;;5064870;28;20059;-74
2023/04/03 03:45:26;;;;;;;2.15;1.35;;;;;;;;;;5091001;28;20060;-74
2023/04/03 03:47:54;;;;;;;2.60;1.08;;;;;;;;;;5084469;28;20044;-74
2023/04/03 03:50:23;;;;;;;4.55;1.10;;;;;;;;;;5069982;28;20461;-74
2023/04/03 03:52:50;;;;;;;4.20;1.05;;;;;;;;;;5089856;28;20479;-74
2023/04/03 03:55:17;;;;;;;5.68;1.00;;;;;;;;;;5072700;28;20062;-74
2023/04/03 03:57:44;;;;;;;3.75;1.00;;;;;;;;;;5089788;28;20073;-74
2023/04/03 04:00:12;;;;;;;5.15;1.10;;;;;;;;;;5086369;28;20059;-74
2023/04/03 04:02:39;;;;;;;4.47;1.23;;;;;;;;;;5072841;28;20063;-74
2023/04/03 04:05:07;;;;;;;7.30;1.55;;;;;;;;;;5087061;28;20068;-74
2023/04/03 04:07:36;;;;;;;8.57;2.65;;;;;;;;;;5090655;28;20043;-74
2023/04/03 04:10:03;;;;;;;6.22;1.40;;;;;;;;;;5080954;28;20040;-74
2023/04/03 04:12:30;;;;;;;8.30;1.40;;;;;;;;;;5089127;28;20048;-74
2023/04/03 04:14:57;;;;;;;6.38;1.00;;;;;;;;;;5089844;28;20059;-74
2023/04/03 04:17:25;;;;;;;4.50;1.30;;;;;;;;;;5091610;28;20075;-74
2023/04/03 04:19:52;;;;;;;5.93;0.98;;;;;;;;;;5091534;28;20514;-74
2023/04/03 04:22:19;;;;;;;5.13;1.10;;;;;;;;;;5087791;28;20510;-74
2023/04/03 04:24:48;;;;;;;3.97;1.00;;;;;;;;;;5070736;28;20044;-74
2023/04/03 04:27:15;;;;;;;10.95;1.45;;;;;;;;;;5090639;28;20048;-74
2023/04/03 04:29:43;;;;;;;5.10;1.40;;;;;;;;;;5071227;28;20131;-74
2023/04/03 04:32:10;;;;;;;6.15;1.40;;;;;;;;;;5081704;28;20534;-74
2023/04/03 04:34:37;;;;;;;5.30;1.23;;;;;;;;;;5087417;28;20055;-74
2023/04/03 04:37:04;;;;;;;5.32;1.17;;;;;;;;;;5065525;28;20069;-74
2023/04/03 04:39:32;;;;;;;4.82;0.95;;;;;;;;;;5069409;28;20078;-74
2023/04/03 04:42:00;;;;;;;8.73;1.33;;;;;;;;;;5083875;28;20051;-74
2023/04/03 04:44:27;;;;;;;5.18;1.13;;;;;;;;;;5087780;28;20051;-74
2023/04/03 04:46:55;;;;;;;4.53;1.50;;;;;;;;;;5091094;28;20054;-74
2023/04/03 04:49:22;;;;;;;6.20;1.60;;;;;;;;;;5090751;28;20052;-74
2023/04/03 04:51:49;;;;;;;6.18;1.30;;;;;;;;;;5090989;28;20383;-74
2023/04/03 04:54:17;;;;;;;6.88;1.10;;;;;;;;;;5082720;28;20048;-74
2023/04/03 04:56:44;;;;;;;7.20;1.30;;;;;;;;;;5064018;28;20048;-74
2023/04/03 04:59:13;;;;;;;8.30;1.70;;;;;;;;;;5087717;28;20076;-74
2023/04/03 05:01:40;;;;;;;4.75;1.30;;;;;;;;;;5083874;28;20639;-74
2023/04/03 05:04:09;;;;;;;4.72;1.15;;;;;;;;;;5085517;28;20051;-74
2023/04/03 05:06:36;;;;;;;7.07;1.50;;;;;;;;;;5086915;28;20121;-74
2023/04/03 05:09:03;;;;;;;4.63;1.35;;;;;;;;;;5089366;28;20066;-74
2023/04/03 05:11:30;;;;;;;7.20;1.30;;;;;;;;;;5082431;28;20060;-75
2023/04/03 05:13:58;;;;;;;3.72;1.25;;;;;;;;;;5080126;28;20056;-74
2023/04/03 05:16:26;;;;;;;5.00;1.40;;;;;;;;;;5061034;28;20075;-74
2023/04/03 05:18:54;;;;;;;5.70;1.70;;;;;;;;;;5084162;28;20059;-75
2023/04/03 05:21:23;;;;;;;4.68;1.13;;;;;;;;;;5084217;28;20044;-74
2023/04/03 05:23:50;;;;;;;6.40;1.48;;;;;;;;;;5063779;28;20067;-74
2023/04/03 05:26:17;;;;;;;10.43;1.58;;;;;;;;;;5080367;28;20047;-74
2023/04/03 05:28:44;;;;;;;6.60;1.98;;;;;;;;;;5085101;28;20606;-74
2023/04/03 05:31:15;;;;;;;8.48;2.08;;;;;;;;;;5085759;28;20056;-74
2023/04/03 05:33:44;;;;;;;5.85;1.40;;;;;;;;;;5067857;28;20055;-74
2023/04/03 05:36:12;;;;;;;6.85;1.90;;;;;;;;;;5083122;28;20512;-74
2023/04/03 05:38:40;;;;;;;6.07;1.40;;;;;;;;;;5080731;28;20078;-73
2023/04/03 05:41:07;;;;;;;9.57;1.67;;;;;;;;;;5084614;28;20062;-74
2023/04/03 05:43:37;;;;;;;4.60;1.50;;;;;;;;;;5067609;28;20043;-74
2023/04/03 05:46:04;;;;;;;7.88;1.92;;;;;;;;;;5084456;28;20051;-74
2023/04/03 05:48:32;;;;;;;8.95;1.75;;;;;;;;;;5081142;28;20056;-74
2023/04/03 05:51:00;;;;;;;6.90;1.60;;;;;;;;;;5083639;28;20044;-74
2023/04/03 05:53:29;;;;;;;10.57;2.00;;;;;;;;;;5078361;28;20052;-75
2023/04/03 05:55:57;;;;;;;7.82;1.73;;;;;;;;;;5066377;28;20561;-74
2023/04/03 05:58:24;;;;;;;8.73;2.22;;;;;;;;;;5085919;28;20048;-74
2023/04/03 06:00:51;;;;;;;5.45;1.70;;;;;;;;;;5080006;28;20060;-74
2023/04/03 06:03:19;;;;;;;9.48;1.70;;;;;;;;;;5085325;28;20654;-74
2023/04/03 06:05:47;;;;;;;5.78;1.38;;;;;;;;;;5087771;28;20368;-72
2023/04/03 06:08:15;;;;;;;6.15;1.60;;;;;;;;;;5086886;28;20075;-73
2023/04/03 06:10:42;;;;;;;6.75;1.80;;;;;;;;;;5069758;28;20047;-73
2023/04/03 06:13:10;;;;;;;9.00;2.17;;;;;;;;;;5085563;28;20063;-72
2023/04/03 06:15:37;;;;;;;9.27;1.80;;;;;;;;;;5086799;28;20574;-73
2023/04/03 06:18:05;;;;;;;7.82;1.70;;;;;;;;;;5065865;28;20110;-73
2023/04/03 06:20:32;;;;;;;7.60;2.25;;;;;;;;;;5079835;28;20489;-73
2023/04/03 06:22:59;;;;;;;9.90;2.10;;;;;;;;;;5066001;28;20052;-73
2023/04/03 06:25:28;;;;;;;10.73;2.13;;;;;;;;;;5067599;28;20127;-73
2023/04/03 06:27:56;;;;;;;7.95;1.90;;;;;;;;;;5070159;28;20054;-73
2023/04/03 06:30:23;;;;;;;7.30;1.92;;;;;;;;;;5087272;28;20047;-73
2023/04/03 06:32:51;;;;;;;6.32;2.53;;;;;;;;;;5064718;28;20050;-73
2023/04/03 06:35:18;;;;;;;7.82;1.88;;;;;;;;;;5083997;28;20048;-73
2023/04/03 06:37:45;;;;;;;7.93;1.88;;;;;;;;;;5085969;28;20138;-73
2023/04/03 06:40:17;;;;;;;7.75;1.60;;;;;;;;;;5082495;28;20059;-73
2023/04/03 06:42:46;;;;;;;6.70;1.65;;;;;;;;;;5084223;28;20155;-73
2023/04/03 06:45:13;;;;;;;8.75;2.03;;;;;;;;;;5081999;28;20433;-73
2023/04/03 06:47:40;;;;;;;8.30;2.10;;;;;;;;;;5061510;28;20051;-73
2023/04/03 06:50:08;;;;;;;7.07;1.85;;;;;;;;;;5082224;28;20044;-73
2023/04/03 06:52:36;;;;;;;10.63;2.20;;;;;;;;;;5071838;28;20044;-73
2023/04/03 06:55:03;;;;;;;4.07;1.58;;;;;;;;;;5076459;28;20601;-73
2023/04/03 06:57:31;;;;;;;11.18;2.30;;;;;;;;;;5083551;28;20044;-73
2023/04/03 06:59:59;;;;;;;8.88;2.00;;;;;;;;;;5083793;28;20050;-74
2023/04/03 07:02:27;;;;;;;8.93;2.28;;;;;;;;;;5084168;28;20040;-73
2023/04/03 07:04:54;;;;;;;11.00;1.95;;;;;;;;;;5085335;28;20399;-73
2023/04/03 07:07:22;;;;;;;4.93;1.98;;;;;;;;;;5063477;28;20052;-73
2023/04/03 07:09:49;;;;;;;7.25;1.95;;;;;;;;;;5083570;28;20048;-73
2023/04/03 07:12:16;;;;;;;10.15;2.17;;;;;;;;;;5086456;28;20051;-67
2023/04/03 07:14:44;;;;;;;9.73;2.25;;;;;;;;;;5083696;28;20785;-67
2023/04/03 07:17:12;;;;;;;10.30;2.20;;;;;;;;;;5088360;28;20052;-67
2023/04/03 07:19:40;;;;;;;8.32;1.67;;;;;;;;;;5085498;28;20044;-67
2023/04/03 07:22:07;;;;;;;6.28;1.67;;;;;;;;;;5079338;28;20047;-68
2023/04/03 07:24:34;;;;;;;7.97;2.03;;;;;;;;;;5069124;28;20050;-67
2023/04/03 08:39:45;;;;;;;9.80;1.45;;;;;;;;;;5044796;28;20090;-68
2023/04/03 08:42:17;;;;;;;3.13;1.13;;;;;;;;;;5045256;28;20052;-69
2023/04/03 08:44:48;;;;;;;7.32;1.33;;;;;;;;;;5043613;28;20041;-67
2023/04/03 08:47:20;;;;;;;5.30;1.00;;;;;;;;;;5047939;28;20040;-68
2023/04/03 08:49:50;;;;;;;3.53;1.15;;;;;;;;;;5045799;28;20056;-68
2023/04/03 08:52:19;;;;;;;2.30;0.85;;;;;;;;;;5041140;28;20446;-68
2023/04/03 08:54:52;;;;;;;4.80;0.93;;;;;;;;;;5040301;28;20056;-68
2023/04/03 08:57:21;;;;;;;2.70;1.00;;;;;;;;;;5043858;28;20231;-68
2023/04/03 08:59:49;;;;;;;3.10;0.90;;;;;;;;;;5044175;28;20049;-68
2023/04/03 09:02:26;;;;;;;2.53;0.90;;;;;;;;;;5045929;28;20053;-68
2023/04/03 09:04:53;;;;;;;7.47;1.48;;;;;;;;;;5042257;28;20063;-68
2023/04/03 09:07:23;;;;;;;4.07;1.10;;;;;;;;;;5042147;28;20166;-68
2023/04/03 09:09:53;;;;;;;3.22;0.80;;;;;;;;;;5044555;28;20344;-68
2023/04/03 09:12:23;;;;;;;2.72;1.00;;;;;;;;;;5048637;28;20085;-68
2023/04/03 09:14:55;;;;;;;1.98;0.88;;;;;;;;;;5045341;28;20040;-67
2023/04/03 09:17:26;;;;;;;5.13;1.20;;;;;;;;;;5043544;28;20052;-68
2023/04/03 09:19:57;;;;;;;3.30;1.33;;;;;;;;;;5044484;28;20399;-68
2023/04/03 09:22:26;;;;;;;5.90;1.17;;;;;;;;;;5043809;28;20190;-67
2023/04/03 09:24:59;;;;;;;3.10;0.60;;;;;;;;;;5049711;28;20057;-68
2023/04/03 09:27:26;;;;;;;6.03;1.00;;;;;;;;;;5046388;28;20041;-68
2023/04/03 09:29:55;;;;;;;3.72;1.10;;;;;;;;;;5047640;28;20045;-68
2023/04/03 09:32:26;;;;;;;3.80;0.95;;;;;;;;;;5047204;28;20432;-68
2023/04/03 09:34:55;;;;;;;3.28;1.00;;;;;;;;;;5045191;28;20048;-68
2023/04/03 09:37:36;;;;;;;4.53;1.00;;;;;;;;;;5050047;28;20061;-67
2023/04/03 09:40:07;;;;;;;4.55;0.80;;;;;;;;;;5064462;28;20048;-67
2023/04/03 09:42:35;;;;;;;5.10;0.75;;;;;;;;;;5088632;28;20040;-67
2023/04/03 09:45:05;;;;;;;4.05;0.90;;;;;;;;;;5088072;28;20048;-68
2023/04/03 09:47:33;;;;;;;1.98;0.50;;;;;;;;;;5087301;28;20138;-67
2023/04/03 09:50:18;;;;;;;3.08;1.15;;;;;;;;;;5087989;28;20040;-68
2023/04/03 09:52:46;;;;;;;3.20;0.80;;;;;;;;;;5086735;28;20127;-68
2023/04/03 09:55:17;;;;;;;2.20;0.73;;;;;;;;;;5085664;28;20043;-68
2023/04/03 09:57:45;;;;;;;3.33;0.80;;;;;;;;;;5061862;28;20514;-68
2023/04/03 10:00:22;;;;;;;4.55;0.80;;;;;;;;;;5084687;28;20130;-67
2023/04/03 10:02:52;;;;;;;2.72;0.57;;;;;;;;;;5087290;28;20062;-68
2023/04/03 10:05:44;;;;;;;3.03;0.50;;;;;;;;;;5082971;28;20113;-68
2023/04/03 10:08:13;;;;;;;3.80;0.80;;;;;;;;;;5066604;28;20058;-68
2023/04/03 10:10:42;;;;;;;3.00;0.90;;;;;;;;;;5084778;28;20055;-67
2023/04/03 10:13:12;;;;;;;3.95;0.75;;;;;;;;;;5085497;28;20130;-68
2023/04/03 10:15:42;;;;;;;3.28;0.82;;;;;;;;;;5085169;28;20051;-68
2023/04/03 10:18:18;;;;;;;2.55;0.68;;;;;;;;;;5086093;28;20368;-68
2023/04/03 10:20:49;;;;;;;2.78;0.70;;;;;;;;;;5085164;28;20052;-68
2023/04/03 10:23:20;;;;;;;4.10;0.68;;;;;;;;;;5086361;28;20104;-68
2023/04/03 10:25:52;;;;;;;2.33;0.50;;;;;;;;;;5085913;28;20136;-68
2023/04/03 10:28:23;;;;;;;4.50;0.75;;;;;;;;;;5086131;28;20044;-68
2023/04/03 10:30:53;;;;;;;4.38;0.77;;;;;;;;;;5079351;28;20055;-67
2023/04/03 10:33:41;;;;;;;2.90;0.80;;;;;;;;;;5085925;28;20048;-67
2023/04/03 10:36:15;;;;;;;2.05;0.73;;;;;;;;;;5081531;28;20055;-68
2023/04/03 10:38:46;;;;;;;2.67;0.80;;;;;;;;;;5080780;28;20399;-68
2023/04/03 10:41:18;;;;;;;4.43;0.80;;;;;;;;;;5063233;28;20076;-67
2023/04/03 10:43:48;;;;;;;2.70;0.60;;;;;;;;;;5082295;28;20044;-68
2023/04/03 10:46:18;;;;;;;2.60;0.65;;;;;;;;;;5084848;28;20055;-68
2023/04/03 10:48:58;;;;;;;2.65;0.60;;;;;;;;;;5083096;28;20052;-68
2023/04/03 10:51:27;;;;;;;2.03;0.52;;;;;;;;;;5086334;28;20055;-68
2023/04/03 10:53:58;;;;;;;1.50;0.40;;;;;;;;;;5082767;28;20068;-68
2023/04/03 10:56:32;;;;;;;3.00;0.80;;;;;;;;;;5083925;28;20398;-68
2023/04/03 10:59:02;;;;;;;2.95;0.65;;;;;;;;;;5085398;28;20072;-67
2023/04/03 11:01:32;;;;;;;2.33;0.80;;;;;;;;;;5082939;28;20040;-68
2023/04/03 11:04:00;;;;;;;4.93;0.60;;;;;;;;;;5066387;28;20055;-68
2023/04/03 11:06:32;;;;;;;4.03;0.50;;;;;;;;;;5084469;28;20043;-68
2023/04/03 11:09:06;;;;;;;1.92;0.70;;;;;;;;;;5067079;28;20097;-68
2023/04/03 11:11:36;;;;;;;1.85;0.50;;;;;;;;;;5065221;28;20823;-68
2023/04/03 11:14:04;;;;;;;3.33;0.70;;;;;;;;;;5083073;28;20036;-68
2023/04/03 11:16:33;;;;;;;4.32;0.70;;;;;;;;;;5083986;28;20472;-68
2023/04/03 11:19:03;;;;;;;0.90;0.40;;;;;;;;;;5083689;28;20109;-68
2023/04/03 11:21:31;;;;;;;1.48;0.40;;;;;;;;;;5068466;28;20048;-69
2023/04/03 11:23:59;;;;;;;2.35;0.60;;;;;;;;;;5085268;28;20059;-68
2023/04/03 11:26:29;;;;;;;1.77;0.60;;;;;;;;;;5086252;28;20391;-68
2023/04/03 11:29:00;;;;;;;2.13;0.70;;;;;;;;;;5083723;28;20409;-68
2023/04/03 11:31:35;;;;;;;3.20;1.08;;;;;;;;;;5082905;28;20187;-68
2023/04/03 11:34:07;;;;;;;1.98;0.73;;;;;;;;;;5082002;28;20044;-68
2023/04/03 11:36:39;;;;;;;2.33;0.60;;;;;;;;;;5086691;28;20048;-68
2023/04/03 11:39:11;;;;;;;4.90;0.82;;;;;;;;;;5083750;28;20423;-68
2023/04/03 11:41:39;;;;;;;1.30;0.57;;;;;;;;;;5084738;28;20101;-68
2023/04/03 11:44:27;;;;;;;0.95;0.50;;;;;;;;;;5059016;28;20044;-69
2023/04/03 11:46:55;;;;;;;1.83;0.70;;;;;;;;;;5082066;28;20076;-68
2023/04/03 11:49:50;;;;;;;1.83;0.68;;;;;;;;;;5083526;28;20060;-68
2023/04/03 11:52:42;;;;;;;2.10;0.90;;;;;;;;;;5037868;28;20094;-69
2023/04/03 11:55:25;;;;;;;1.30;0.68;;;;;;;;;;5078171;28;20056;-68
2023/04/03 11:58:13;;;;;;;1.60;0.63;;;;;;;;;;5083638;28;20052;-68
2023/04/03 12:00:52;;;;;;;2.25;0.80;;;;;;;;;;5079982;28;20105;-69
2023/04/03 12:03:49;;;;;;;5.13;1.00;;;;;;;;;;5088632;28;20050;-69
2023/04/03 12:06:50;;;;;;;4.28;0.80;;;;;;;;;;5044380;28;20053;-68
2023/04/03 12:09:24;;;;;;;3.25;1.00;;;;;;;;;;5084990;28;20048;-69
2023/04/03 12:11:52;;;;;;;1.92;0.80;;;;;;;;;;5085583;28;20399;-69
2023/04/03 12:14:21;;;;;;;3.47;0.65;;;;;;;;;;5086853;28;20434;-69
2023/04/03 12:16:51;;;;;;;1.73;0.75;;;;;;;;;;5088601;28;20048;-68
2023/04/03 12:19:32;;;;;;;1.25;0.68;;;;;;;;;;5085396;28;20067;-69
2023/04/03 12:22:09;;;;;;;3.13;0.80;;;;;;;;;;5059026;28;20048;-69
2023/04/03 12:24:38;;;;;;;4.40;0.90;;;;;;;;;;5078677;28;20040;-69
2023/04/03 12:27:24;;;;;;;5.05;1.30;;;;;;;;;;5070434;28;20071;-69
2023/04/03 12:29:54;;;;;;;6.50;1.20;;;;;;;;;;5086091;28;20506;-69
2023/04/03 12:32:28;;;;;;;3.10;0.88;;;;;;;;;;5090545;28;20048;-69
2023/04/03 12:35:02;;;;;;;3.13;0.95;;;;;;;;;;5084964;28;20064;-69
2023/04/03 12:37:39;;;;;;;3.55;1.50;;;;;;;;;;5088485;28;20649;-69
2023/04/03 12:40:10;;;;;;;2.63;1.20;;;;;;;;;;5083675;28;20072;-69
2023/04/03 12:42:44;;;;;;;2.97;1.20;;;;;;;;;;5082728;28;20071;-69
2023/04/03 12:45:17;;;;;;;3.55;1.02;;;;;;;;;;5089593;28;20048;-69
2023/04/03 12:47:46;;;;;;;3.88;1.38;;;;;;;;;;5081368;28;20134;-69
2023/04/03 12:50:23;;;;;;;3.50;1.10;;;;;;;;;;5090085;28;20052;-69
2023/04/03 12:52:52;;;;;;;3.50;1.02;;;;;;;;;;5086097;28;20048;-69
2023/04/03 12:55:21;;;;;;;2.67;1.20;;;;;;;;;;5081524;28;20052;-69
2023/04/03 12:57:49;;;;;;;2.55;1.02;;;;;;;;;;5089059;28;20048;-70
2023/04/03 13:00:23;;;;;;;2.35;0.98;;;;;;;;;;5087110;28;20896;-69
2023/04/03 13:02:52;;;;;;;2.38;1.20;;;;;;;;;;5071767;28;20052;-69
2023/04/03 13:05:21;;;;;;;2.20;0.90;;;;;;;;;;5086844;28;20048;-69
2023/04/03 13:07:51;;;;;;;3.60;1.17;;;;;;;;;;5082679;28;20052;-69
2023/04/03 13:10:19;;;;;;;4.95;1.20;;;;;;;;;;5087854;28;20088;-69
2023/04/03 13:12:50;;;;;;;2.88;1.05;;;;;;;;;;5087915;28;20131;-69
2023/04/03 13:15:19;;;;;;;2.28;0.90;;;;;;;;;;5089711;28;20549;-69
2023/04/03 13:17:48;;;;;;;2.38;0.90;;;;;;;;;;5085346;28;20052;-69
2023/04/03 13:20:19;;;;;;;1.40;0.90;;;;;;;;;;5087632;28;20474;-69
2023/04/03 13:22:51;;;;;;;2.97;1.00;;;;;;;;;;5087587;28;20051;-69
2023/04/03 13:25:19;;;;;;;3.63;1.63;;;;;;;;;;5088030;28;20044;-69
2023/04/03 13:27:47;;;;;;;3.70;1.20;;;;;;;;;;5088848;28;20503;-69
2023/04/03 13:30:21;;;;;;;2.67;1.00;;;;;;;;;;5082644;28;20049;-69
2023/04/03 13:32:48;;;;;;;3.67;1.25;;;;;;;;;;5083916;28;20040;-69
2023/04/03 13:35:31;;;;;;;3.28;1.40;;;;;;;;;;5083409;28;20402;-69
2023/04/03 13:38:00;;;;;;;3.65;1.50;;;;;;;;;;5060035;28;20560;-69
2023/04/03 13:40:28;;;;;;;2.55;1.35;;;;;;;;;;5070263;28;20501;-69
2023/04/03 13:43:02;;;;;;;2.80;1.20;;;;;;;;;;5082931;28;20052;-69
2023/04/03 13:45:30;;;;;;;3.75;1.20;;;;;;;;;;5088678;28;20048;-69
2023/04/03 13:48:09;;;;;;;4.85;1.30;;;;;;;;;;5085780;28;20040;-69
2023/04/03 13:50:51;;;;;;;2.03;1.20;;;;;;;;;;5084989;28;20526;-69
2023/04/03 13:53:19;;;;;;;3.72;1.20;;;;;;;;;;5065605;28;20062;-69
2023/04/03 13:55:55;;;;;;;2.45;1.17;;;;;;;;;;5079897;28;20213;-69
2023/04/03 13:58:25;;;;;;;2.63;1.20;;;;;;;;;;5085809;28;20475;-69
2023/04/03 14:00:53;;;;;;;3.83;1.40;;;;;;;;;;5078532;28;20049;-69
2023/04/03 14:03:22;;;;;;;2.38;1.02;;;;;;;;;;5068903;28;20415;-67
2023/04/03 14:05:51;;;;;;;3.65;1.10;;;;;;;;;;5084500;28;20052;-67
2023/04/03 14:08:18;;;;;;;2.70;1.15;;;;;;;;;;5083619;28;20055;-69
2023/04/03 14:10:47;;;;;;;4.00;1.20;;;;;;;;;;5074887;28;20052;-69
2023/04/03 14:13:15;;;;;;;2.83;1.10;;;;;;;;;;5084923;28;20048;-69
2023/04/03 14:15:43;;;;;;;2.83;1.27;;;;;;;;;;5081627;28;20036;-69
2023/04/03 14:18:12;;;;;;;2.53;1.38;;;;;;;;;;5084758;28;20052;-69
2023/04/03 14:20:39;;;;;;;2.70;1.10;;;;;;;;;;5085010;28;20415;-69
2023/04/03 14:23:08;;;;;;;3.72;1.15;;;;;;;;;;5081145;28;20044;-69
2023/04/03 14:25:36;;;;;;;2.17;1.17;;;;;;;;;;5084232;28;20048;-69
2023/04/03 14:28:13;;;;;;;2.45;1.35;;;;;;;;;;5081879;28;20044;-69
2023/04/03 14:30:41;;;;;;;3.17;1.30;;;;;;;;;;5068058;28;20044;-69
2023/04/03 14:33:09;;;;;;;3.83;1.40;;;;;;;;;;5080853;28;20045;-69
2023/04/03 14:35:36;;;;;;;10.00;1.35;;;;;;;;;;5080903;28;20048;-69
2023/04/03 14:38:03;;;;;;;5.72;1.38;;;;;;;;;;5044558;28;1129060;-69
2023/04/03 14:40:32;;;;;;;3.65;1.23;;;;;;;;;;5077327;28;20055;-69
2023/04/03 14:42:59;;;;;;;3.08;1.60;;;;;;;;;;5068420;28;20459;-69
2023/04/03 14:45:26;;;;;;;2.70;1.40;;;;;;;;;;5066262;28;20059;-69
2023/04/03 14:47:55;;;;;;;3.38;1.63;;;;;;;;;;5082009;28;20055;-69
2023/04/03 14:50:24;;;;;;;3.40;1.60;;;;;;;;;;5088455;28;20502;-69
2023/04/03 14:52:53;;;;;;;3.22;1.48;;;;;;;;;;5084143;28;20047;-69
2023/04/03 14:55:21;;;;;;;3.65;1.60;;;;;;;;;;5086044;28;20052;-69
2023/04/03 14:57:50;;;;;;;3.08;1.67;;;;;;;;;;5088911;28;20138;-69
2023/04/03 15:00:20;;;;;;;3.35;1.75;;;;;;;;;;5086232;28;20125;-69
2023/04/03 15:02:47;;;;;;;3.40;1.60;;;;;;;;;;5082828;28;20052;-69
2023/04/03 15:05:15;;;;;;;3.22;1.90;;;;;;;;;;5065994;28;20408;-70
2023/04/03 15:07:43;;;;;;;3.58;1.65;;;;;;;;;;5084164;28;20494;-69
2023/04/03 15:10:16;;;;;;;3.40;1.60;;;;;;;;;;5085223;28;20066;-69
2023/04/03 15:12:44;;;;;;;5.10;1.80;;;;;;;;;;5077397;28;20044;-69
2023/04/03 15:15:13;;;;;;;4.78;1.70;;;;;;;;;;5077078;28;20432;-69
2023/04/03 15:17:41;;;;;;;4.28;1.60;;;;;;;;;;5068957;28;20048;-69
2023/04/03 15:20:13;;;;;;;2.80;1.48;;;;;;;;;;5081383;28;20055;-69
2023/04/03 15:22:40;;;;;;;3.45;1.80;;;;;;;;;;5064582;28;20055;-69
2023/04/03 15:25:08;;;;;;;3.75;1.67;;;;;;;;;;5063065;28;20063;-69
2023/04/03 15:27:35;;;;;;;2.95;1.30;;;;;;;;;;5083769;28;20044;-69
2023/04/03 15:30:02;;;;;;;4.50;1.75;;;;;;;;;;5080526;28;20052;-69
2023/04/03 15:32:31;;;;;;;4.15;1.92;;;;;;;;;;5084698;28;20060;-69
2023/04/03 15:34:58;;;;;;;2.97;1.30;;;;;;;;;;5082463;28;20051;-69
2023/04/03 15:37:26;;;;;;;3.35;1.70;;;;;;;;;;5079436;28;20416;-70
2023/04/03 15:39:53;;;;;;;2.95;1.52;;;;;;;;;;5083560;28;20044;-69
2023/04/03 15:42:21;;;;;;;3.05;1.35;;;;;;;;;;5084563;28;20471;-69
2023/04/03 15:44:48;;;;;;;3.40;1.50;;;;;;;;;;5080389;28;20047;-69
2023/04/03 15:47:16;;;;;;;3.72;1.58;;;;;;;;;;5081923;28;20059;-69
2023/04/03 15:49:44;;;;;;;5.18;1.63;;;;;;;;;;5082497;28;20049;-69
2023/04/03 15:52:12;;;;;;;3.28;1.50;;;;;;;;;;5075723;28;20064;-69
2023/04/03 15:54:39;;;;;;;3.70;1.55;;;;;;;;;;5080371;28;20044;-69
2023/04/03 15:57:06;;;;;;;2.22;1.13;;;;;;;;;;5078228;28;20048;-69
2023/04/03 15:59:33;;;;;;;2.15;1.20;;;;;;;;;;5078104;28;20056;-69
2023/04/03 16:02:01;;;;;;;2.03;1.40;;;;;;;;;;5084545;28;20422;-70
2023/04/03 16:04:28;;;;;;;4.55;1.40;;;;;;;;;;5068603;28;20060;-69
2023/04/03 16:06:57;;;;;;;2.70;1.30;;;;;;;;;;5083349;28;20495;-69
2023/04/03 16:09:25;;;;;;;2.30;1.30;;;;;;;;;;5085870;28;20118;-69